createdAt,value
2019-05-18T00:01:28.784Z,83.95
2019-05-18T00:03:57.469Z,84.88
2019-05-18T00:06:26.148Z,84.41
2019-05-18T00:08:54.813Z,83.26
2019-05-18T00:11:23.544Z,84.00
2019-05-18T00:13:52.212Z,83.88
2019-05-18T00:16:20.934Z,84.74
2019-05-18T00:18:49.602Z,84.16
2019-05-18T00:21:18.279Z,84.05
2019-05-18T00:23:46.971Z,84.05
2019-05-18T00:26:15.668Z,84.53
2019-05-18T00:28:44.366Z,84.47
2019-05-18T00:31:13.031Z,84.29
2019-05-18T00:33:41.727Z,83.95
2019-05-18T00:36:10.419Z,84.48
2019-05-18T00:38:39.082Z,84.39
2019-05-18T00:41:07.749Z,84.03
2019-05-18T00:43:36.466Z,84.31
2019-05-18T00:46:05.739Z,84.56
2019-05-18T00:48:34.893Z,84.44
2019-05-18T00:51:03.603Z,83.26
2019-05-18T00:53:32.257Z,82.91
2019-05-18T00:56:00.931Z,81.51
2019-05-18T00:58:29.607Z,81.19
2019-05-18T01:00:58.269Z,81.01
2019-05-18T01:03:26.957Z,81.56
2019-05-18T01:05:55.618Z,80.14
2019-05-18T01:08:24.302Z,79.98
2019-05-18T01:10:52.966Z,81.06
2019-05-18T01:13:21.631Z,81.49
2019-05-18T01:15:50.321Z,82.09
2019-05-18T01:18:19.033Z,82.61
2019-05-18T01:20:47.716Z,82.43
2019-05-18T01:23:16.391Z,83.49
2019-05-18T01:25:45.071Z,84.22
2019-05-18T01:28:13.749Z,84.55
2019-05-18T01:30:42.542Z,85.19
2019-05-18T01:33:11.247Z,85.63
2019-05-18T01:35:39.923Z,86.32
2019-05-18T01:38:08.599Z,86.35
2019-05-18T01:40:37.282Z,86.38
2019-05-18T01:43:05.956Z,86.50
2019-05-18T01:45:34.677Z,86.69
2019-05-18T01:48:13.352Z,86.08
2019-05-18T01:50:33.746Z,85.12
2019-05-18T01:53:02.456Z,84.35
2019-05-18T01:55:31.104Z,84.22
2019-05-18T01:57:59.770Z,84.80
2019-05-18T02:00:28.444Z,84.86
2019-05-18T02:02:57.123Z,84.85
2019-05-18T02:05:25.780Z,85.31
2019-05-18T02:07:54.443Z,85.75
2019-05-18T02:10:23.130Z,85.82
2019-05-18T02:12:51.801Z,85.83
2019-05-18T02:15:20.575Z,85.39
2019-05-18T02:17:49.257Z,85.35
2019-05-18T02:20:17.911Z,85.65
2019-05-18T02:22:46.587Z,85.70
2019-05-18T02:25:15.450Z,85.84
2019-05-18T02:27:44.146Z,85.92
2019-05-18T02:30:17.381Z,86.10
2019-05-18T02:32:43.523Z,86.08
2019-05-18T02:35:12.988Z,85.91
2019-05-18T02:37:41.667Z,86.01
2019-05-18T02:40:10.736Z,85.88
2019-05-18T02:42:39.397Z,86.42
2019-05-18T02:45:08.974Z,86.76
2019-05-18T02:47:37.648Z,86.27
2019-05-18T02:50:07.511Z,86.06
2019-05-18T02:52:36.193Z,86.01
2019-05-18T02:55:06.162Z,86.26
2019-05-18T02:57:34.808Z,86.17
2019-05-18T03:00:05.096Z,86.42
2019-05-18T03:02:33.750Z,86.73
2019-05-18T03:05:02.625Z,86.62
2019-05-18T03:07:31.294Z,86.46
2019-05-18T03:09:59.955Z,86.41
2019-05-18T03:12:28.720Z,86.38
2019-05-18T03:14:57.378Z,85.75
2019-05-18T03:17:26.046Z,85.46
2019-05-18T03:19:54.703Z,85.55
2019-05-18T03:22:23.415Z,85.72
2019-05-18T03:24:52.070Z,86.09
2019-05-18T03:27:20.751Z,86.91
2019-05-18T03:29:49.420Z,86.86
2019-05-18T03:32:18.122Z,86.61
2019-05-18T03:34:46.773Z,86.71
2019-05-18T03:37:15.428Z,86.27
2019-05-18T03:39:44.117Z,85.37
2019-05-18T03:42:12.807Z,85.08
2019-05-18T03:44:41.447Z,85.51
2019-05-18T03:47:10.118Z,85.50
2019-05-18T03:49:38.789Z,86.41
2019-05-18T03:52:07.455Z,86.64
2019-05-18T03:54:36.119Z,86.92
2019-05-18T03:57:04.799Z,87.08
2019-05-18T03:59:33.469Z,86.04
2019-05-18T04:02:02.131Z,85.70
2019-05-18T04:04:30.805Z,84.55
2019-05-18T04:06:59.478Z,83.67
2019-05-18T04:09:28.152Z,83.64
2019-05-18T04:11:56.828Z,82.72
2019-05-18T04:14:25.603Z,82.14
2019-05-18T04:16:55.856Z,81.97
2019-05-18T04:19:24.635Z,81.77
2019-05-18T04:21:53.302Z,80.80
2019-05-18T04:24:21.974Z,80.02
2019-05-18T04:26:50.689Z,79.90
2019-05-18T04:29:19.302Z,78.81
2019-05-18T04:31:47.981Z,79.30
2019-05-18T04:34:16.644Z,79.47
2019-05-18T04:36:45.299Z,78.96
2019-05-18T04:39:13.989Z,79.36
2019-05-18T04:41:42.662Z,79.13
2019-05-18T04:44:11.330Z,78.59
2019-05-18T04:46:40.028Z,79.38
2019-05-18T04:49:08.701Z,80.12
2019-05-18T04:51:37.383Z,80.43
2019-05-18T04:54:06.066Z,80.16
2019-05-18T04:56:34.837Z,80.00
2019-05-18T04:59:03.523Z,79.46
2019-05-18T05:01:32.371Z,79.63
2019-05-18T05:04:01.098Z,78.84
2019-05-18T05:06:29.817Z,78.57
2019-05-18T05:08:58.487Z,77.65
2019-05-18T05:11:27.178Z,77.42
2019-05-18T05:13:55.895Z,75.97
2019-05-18T05:16:24.580Z,75.97
2019-05-18T05:18:53.271Z,76.62
2019-05-18T05:21:21.929Z,75.40
2019-05-18T05:23:50.606Z,72.25
2019-05-18T05:26:19.294Z,71.37
2019-05-18T05:28:47.982Z,72.96
2019-05-18T05:31:16.667Z,74.54
2019-05-18T05:33:46.749Z,74.91
2019-05-18T05:36:15.442Z,74.08
2019-05-18T05:38:44.331Z,74.66
2019-05-18T05:41:16.537Z,74.65
2019-05-18T05:43:43.461Z,72.83
2019-05-18T05:46:12.140Z,72.63
2019-05-18T05:48:40.812Z,73.23
2019-05-18T05:51:09.482Z,72.68
2019-05-18T05:53:38.149Z,72.62
2019-05-18T05:56:06.817Z,72.15
2019-05-18T05:58:35.623Z,72.64
2019-05-18T06:01:04.281Z,71.85
2019-05-18T06:03:32.952Z,70.75
2019-05-18T06:06:01.630Z,71.27
2019-05-18T06:08:30.312Z,71.41
2019-05-18T06:10:58.998Z,72.40
2019-05-18T06:13:27.696Z,72.27
2019-05-18T06:15:56.467Z,72.21
2019-05-18T06:18:25.140Z,71.78
2019-05-18T06:20:53.818Z,71.45
2019-05-18T06:23:22.518Z,71.66
2019-05-18T06:25:51.191Z,70.55
2019-05-18T06:28:19.861Z,70.52
2019-05-18T06:30:48.548Z,71.03
2019-05-18T06:33:17.228Z,71.10
2019-05-18T06:35:45.922Z,70.38
2019-05-18T06:38:14.627Z,70.94
2019-05-18T06:40:43.319Z,71.28
2019-05-18T06:43:12.011Z,70.28
2019-05-18T06:45:40.661Z,70.12
2019-05-18T06:48:09.426Z,70.45
2019-05-18T06:50:38.089Z,70.99
2019-05-18T06:53:06.815Z,69.75
2019-05-18T06:55:36.114Z,69.86
2019-05-18T06:58:04.787Z,68.23
2019-05-18T07:00:33.455Z,67.77
2019-05-18T07:03:02.121Z,67.42
2019-05-18T07:05:30.805Z,66.64
2019-05-18T07:07:59.480Z,66.10
2019-05-18T07:10:28.152Z,64.44
2019-05-18T07:12:56.827Z,64.25
2019-05-18T07:15:25.581Z,63.34
2019-05-18T07:17:54.273Z,63.76
2019-05-18T07:20:22.951Z,63.60
2019-05-18T07:22:51.639Z,61.36
2019-05-18T07:25:20.328Z,59.87
2019-05-18T07:27:49.014Z,56.35
2019-05-18T07:30:19.287Z,54.36
2019-05-18T07:32:47.980Z,53.57
2019-05-18T07:35:16.956Z,53.29
2019-05-18T07:37:45.636Z,49.23
2019-05-18T07:40:14.332Z,46.56
2019-05-18T07:42:43.029Z,45.98
2019-05-18T07:45:13.027Z,45.44
2019-05-18T07:47:41.701Z,45.04
2019-05-18T07:50:10.783Z,42.06
2019-05-18T07:52:39.468Z,44.08
2019-05-18T07:55:08.250Z,43.75
2019-05-18T07:57:36.936Z,42.04
2019-05-18T08:00:06.707Z,40.43
2019-05-18T08:02:35.392Z,39.73
2019-05-18T08:05:05.831Z,41.73
2019-05-18T08:07:34.534Z,38.42
2019-05-18T08:10:03.347Z,37.84
2019-05-18T08:12:32.038Z,39.70
2019-05-18T08:15:00.712Z,38.99
2019-05-18T08:17:29.414Z,37.17
2019-05-18T08:19:58.097Z,36.38
2019-05-18T08:22:26.823Z,35.11
2019-05-18T08:24:55.515Z,35.03
2019-05-18T08:27:24.893Z,33.69
2019-05-18T08:30:06.175Z,39.04
2019-05-18T08:32:35.444Z,38.87
2019-05-18T08:35:05.311Z,38.98
2019-05-18T08:37:34.029Z,36.91
2019-05-18T08:40:02.713Z,39.17
2019-05-18T08:42:31.409Z,37.07
2019-05-18T08:45:00.089Z,36.07
2019-05-18T08:47:28.813Z,35.60
2019-05-18T08:49:57.448Z,34.47
2019-05-18T08:52:26.164Z,35.50
2019-05-18T08:54:54.848Z,33.62
2019-05-18T08:57:23.531Z,35.19
2019-05-18T08:59:52.211Z,34.17
2019-05-18T09:02:20.887Z,34.94
2019-05-18T09:04:49.570Z,34.25
2019-05-18T09:07:18.271Z,34.18
2019-05-18T09:09:46.946Z,33.50
2019-05-18T09:12:15.988Z,33.76
2019-05-18T09:14:44.665Z,33.54
2019-05-18T09:17:13.400Z,32.25
2019-05-18T09:19:42.079Z,30.30
2019-05-18T09:22:22.540Z,28.34
2019-05-18T09:24:41.230Z,30.14
2019-05-18T09:27:09.921Z,30.31
2019-05-18T09:29:38.602Z,29.35
2019-05-18T09:32:07.292Z,29.16
2019-05-18T09:34:35.974Z,31.80
2019-05-18T09:37:04.667Z,31.32
2019-05-18T09:39:35.823Z,33.80
2019-05-18T09:42:04.506Z,33.92
2019-05-18T09:44:33.193Z,32.32
2019-05-18T09:47:01.893Z,29.56
2019-05-18T09:49:30.580Z,31.80
2019-05-18T09:51:59.264Z,30.65
2019-05-18T09:54:27.953Z,30.57
2019-05-18T09:56:56.639Z,30.70
2019-05-18T09:59:25.324Z,29.40
2019-05-18T10:01:54.003Z,30.80
2019-05-18T10:04:22.698Z,28.95
2019-05-18T10:06:51.368Z,28.55
2019-05-18T10:09:20.054Z,27.33
2019-05-18T10:11:48.770Z,28.80
2019-05-18T10:14:17.697Z,28.16
2019-05-18T10:16:46.372Z,28.00
2019-05-18T10:19:15.074Z,27.18
2019-05-18T10:21:43.769Z,28.81
2019-05-18T10:24:12.469Z,28.53
2019-05-18T10:26:41.153Z,26.24
2019-05-18T10:29:09.867Z,25.41
2019-05-18T10:31:38.553Z,24.21
2019-05-18T10:34:07.265Z,23.64
2019-05-18T10:36:35.977Z,25.00
2019-05-18T10:39:07.045Z,27.00
2019-05-18T10:41:35.822Z,26.84
2019-05-18T10:44:04.514Z,25.54
2019-05-18T10:46:33.250Z,25.76
2019-05-18T10:49:04.167Z,23.41
2019-05-18T10:51:35.742Z,23.12
2019-05-18T10:54:04.423Z,21.39
2019-05-18T10:56:35.502Z,21.62
2019-05-18T10:59:04.176Z,23.27
2019-05-18T11:01:32.849Z,24.80
2019-05-18T11:04:01.534Z,25.24
2019-05-18T11:06:30.307Z,24.86
2019-05-18T11:08:58.953Z,22.79
2019-05-18T11:11:27.634Z,21.73
2019-05-18T11:13:56.326Z,21.65
2019-05-18T11:16:25.012Z,20.97
2019-05-18T11:18:53.695Z,21.22
2019-05-18T11:21:22.380Z,23.29
2019-05-18T11:23:51.101Z,24.05
2019-05-18T11:26:19.781Z,24.40
2019-05-18T11:28:48.442Z,23.97
2019-05-18T11:31:17.153Z,22.75
2019-05-18T11:33:45.832Z,24.19
2019-05-18T11:36:14.525Z,23.07
2019-05-18T11:38:43.217Z,24.15
2019-05-18T11:41:11.899Z,23.06
2019-05-18T11:43:40.587Z,22.53
2019-05-18T11:46:09.271Z,21.97
2019-05-18T11:48:37.961Z,21.22
2019-05-18T11:51:06.659Z,20.57
2019-05-18T11:53:35.386Z,21.56
2019-05-18T11:56:04.117Z,20.32
2019-05-18T11:58:32.814Z,21.59
2019-05-18T12:01:01.500Z,21.13
2019-05-18T12:03:30.173Z,20.92
2019-05-18T12:05:59.062Z,23.89
2019-05-18T12:08:27.770Z,24.40
2019-05-18T12:10:56.468Z,22.83
2019-05-18T12:13:25.151Z,21.46
2019-05-18T12:15:53.978Z,20.02
2019-05-18T12:18:22.725Z,20.57
2019-05-18T12:20:51.390Z,19.48
2019-05-18T12:23:20.057Z,20.37
2019-05-18T12:25:50.732Z,21.07
2019-05-18T12:28:19.130Z,22.12
2019-05-18T12:30:47.807Z,23.54
2019-05-18T12:33:16.493Z,25.10
2019-05-18T12:35:45.168Z,23.03
2019-05-18T12:38:13.849Z,21.87
2019-05-18T12:40:42.535Z,22.70
2019-05-18T12:43:11.238Z,21.91
2019-05-18T12:45:39.923Z,21.22
2019-05-18T12:48:08.614Z,20.39
2019-05-18T12:50:37.288Z,23.48
2019-05-18T12:53:05.960Z,23.06
2019-05-18T12:55:36.236Z,20.80
2019-05-18T12:58:04.916Z,21.94
2019-05-18T13:00:33.835Z,22.85
2019-05-18T13:03:02.480Z,24.43
2019-05-18T13:05:31.162Z,24.96
2019-05-18T13:07:59.829Z,27.20
2019-05-18T13:10:28.502Z,24.73
2019-05-18T13:12:57.163Z,22.91
2019-05-18T13:15:25.842Z,22.45
2019-05-18T13:17:54.537Z,20.87
2019-05-18T13:20:23.531Z,21.72
2019-05-18T13:22:52.208Z,22.69
2019-05-18T13:25:21.013Z,23.08
2019-05-18T13:27:49.691Z,23.73
2019-05-18T13:30:19.971Z,26.19
2019-05-18T13:32:48.829Z,24.85
2019-05-18T13:35:17.508Z,22.86
2019-05-18T13:37:46.213Z,21.00
2019-05-18T13:40:16.334Z,23.39
2019-05-18T13:42:45.101Z,25.16
2019-05-18T13:45:14.896Z,24.76
2019-05-18T13:47:43.717Z,22.68
2019-05-18T13:50:14.310Z,21.42
2019-05-18T13:52:43.492Z,21.15
2019-05-18T13:55:12.833Z,22.18
2019-05-18T13:57:41.506Z,24.78
2019-05-18T14:00:10.600Z,26.15
2019-05-18T14:02:39.366Z,28.35
2019-05-18T14:05:08.259Z,29.67
2019-05-18T14:07:36.942Z,29.63
2019-05-18T14:10:12.640Z,30.53
2019-05-18T14:12:41.576Z,31.89
2019-05-18T14:15:12.576Z,31.88
2019-05-18T14:17:41.240Z,32.12
2019-05-18T14:20:10.330Z,31.83
2019-05-18T14:22:39.005Z,32.19
2019-05-18T14:25:18.756Z,33.85
2019-05-18T14:27:38.983Z,35.28
2019-05-18T14:30:08.163Z,35.60
2019-05-18T14:32:36.873Z,36.06
2019-05-18T14:35:07.590Z,33.87
2019-05-18T14:37:36.268Z,34.50
2019-05-18T14:40:06.906Z,34.48
2019-05-18T14:42:35.668Z,35.64
2019-05-18T14:45:08.234Z,36.85
2019-05-18T14:47:36.949Z,37.61
2019-05-18T14:50:06.399Z,38.06
2019-05-18T14:52:35.082Z,38.06
2019-05-18T14:55:04.665Z,37.73
2019-05-18T14:57:33.399Z,34.40
2019-05-18T15:00:02.631Z,31.26
2019-05-18T15:02:31.442Z,29.27
2019-05-18T15:05:00.152Z,28.33
2019-05-18T15:07:28.826Z,27.15
2019-05-18T15:09:57.529Z,26.14
2019-05-18T15:12:26.880Z,26.51
2019-05-18T15:14:56.866Z,25.97
2019-05-18T15:17:25.530Z,26.88
2019-05-18T15:19:54.212Z,26.37
2019-05-18T15:22:23.521Z,25.46
2019-05-18T15:24:52.256Z,25.89
2019-05-18T15:27:20.996Z,26.91
2019-05-18T15:29:52.435Z,25.81
2019-05-18T15:32:21.038Z,25.66
2019-05-18T15:34:50.079Z,25.57
2019-05-18T15:37:18.749Z,26.58
2019-05-18T15:39:47.437Z,25.85
2019-05-18T15:42:16.117Z,25.97
2019-05-18T15:44:44.809Z,26.63
2019-05-18T15:47:13.487Z,26.59
2019-05-18T15:49:42.162Z,26.58
2019-05-18T15:52:10.949Z,26.47
2019-05-18T15:54:39.626Z,26.37
2019-05-18T15:57:08.347Z,26.52
2019-05-18T15:59:37.044Z,26.51
2019-05-18T16:02:06.666Z,26.09
2019-05-18T16:04:35.466Z,27.00
2019-05-18T16:07:04.145Z,28.50
2019-05-18T16:09:32.840Z,30.58
2019-05-18T16:12:01.499Z,32.09
2019-05-18T16:14:30.211Z,32.96
2019-05-18T16:16:58.874Z,34.23
2019-05-18T16:19:27.548Z,35.27
2019-05-18T16:21:56.226Z,36.10
2019-05-18T16:24:24.913Z,37.47
2019-05-18T16:26:53.594Z,38.57
2019-05-18T16:29:22.298Z,39.38
2019-05-18T16:31:50.979Z,39.81
2019-05-18T16:34:19.652Z,39.89
2019-05-18T16:36:48.333Z,39.39
2019-05-18T16:39:17.107Z,40.00
2019-05-18T16:41:45.786Z,40.62
2019-05-18T16:44:14.476Z,41.15
2019-05-18T16:46:43.276Z,40.89
2019-05-18T16:49:12.244Z,41.36
2019-05-18T16:51:40.920Z,41.69
2019-05-18T16:54:09.625Z,42.33
2019-05-18T16:56:38.285Z,42.42
2019-05-18T16:59:06.964Z,41.73
2019-05-18T17:01:35.638Z,41.34
2019-05-18T17:04:04.425Z,42.67
2019-05-18T17:06:33.096Z,40.64
2019-05-18T17:09:01.809Z,42.63
2019-05-18T17:11:30.500Z,41.61
2019-05-18T17:13:59.391Z,42.31
2019-05-18T17:16:28.143Z,41.65
2019-05-18T17:18:56.805Z,41.41
2019-05-18T17:21:25.484Z,43.38
2019-05-18T17:23:54.152Z,44.16
2019-05-18T17:26:22.847Z,43.42
2019-05-18T17:28:51.517Z,44.21
2019-05-18T17:31:20.185Z,44.89
2019-05-18T17:33:48.837Z,45.09
2019-05-18T17:36:19.644Z,46.36
2019-05-18T17:38:47.909Z,45.26
2019-05-18T17:41:16.589Z,45.37
2019-05-18T17:43:45.302Z,46.16
2019-05-18T17:46:13.967Z,48.21
2019-05-18T17:48:42.689Z,45.18
2019-05-18T17:51:11.370Z,46.44
2019-05-18T17:53:40.056Z,47.51
2019-05-18T17:56:08.738Z,49.53
2019-05-18T17:58:37.447Z,47.50
2019-05-18T18:01:06.116Z,48.87
2019-05-18T18:03:34.876Z,47.98
2019-05-18T18:06:03.583Z,48.49
2019-05-18T18:08:35.041Z,47.99
2019-05-18T18:11:03.719Z,48.09
2019-05-18T18:13:32.410Z,48.23
2019-05-18T18:16:02.017Z,48.20
2019-05-18T18:18:30.714Z,47.91
2019-05-18T18:20:59.391Z,48.39
2019-05-18T18:23:28.070Z,49.43
2019-05-18T18:25:56.760Z,50.08
2019-05-18T18:28:25.589Z,50.83
2019-05-18T18:30:54.282Z,51.25
2019-05-18T18:33:22.971Z,51.62
2019-05-18T18:35:52.425Z,51.99
2019-05-18T18:38:21.105Z,52.58
2019-05-18T18:40:49.815Z,52.83
2019-05-18T18:43:20.484Z,52.83
2019-05-18T18:45:49.401Z,53.38
2019-05-18T18:48:18.094Z,52.92
2019-05-18T18:50:46.790Z,53.07
2019-05-18T18:53:15.580Z,53.08
2019-05-18T18:55:45.981Z,49.93
2019-05-18T18:58:14.652Z,50.51
2019-05-18T19:00:43.332Z,51.19
2019-05-18T19:03:12.087Z,51.18
2019-05-18T19:05:42.227Z,51.03
2019-05-18T19:08:10.924Z,52.14
2019-05-18T19:10:39.629Z,52.29
2019-05-18T19:13:09.387Z,52.28
2019-05-18T19:15:39.599Z,51.36
2019-05-18T19:18:08.323Z,51.49
2019-05-18T19:20:37.017Z,51.69
2019-05-18T19:23:07.151Z,52.25
2019-05-18T19:25:35.874Z,49.37
2019-05-18T19:28:04.538Z,49.57
2019-05-18T19:30:33.235Z,49.04
2019-05-18T19:33:01.918Z,50.03
2019-05-18T19:35:30.607Z,46.93
2019-05-18T19:38:01.162Z,45.86
2019-05-18T19:40:31.273Z,46.97
2019-05-18T19:43:02.909Z,47.93
2019-05-18T19:45:31.879Z,47.93
2019-05-18T19:48:00.588Z,48.46
2019-05-18T19:50:29.298Z,48.49
2019-05-18T19:52:57.955Z,48.98
2019-05-18T19:55:28.349Z,49.32
2019-05-18T19:58:08.138Z,50.50
2019-05-18T20:00:27.492Z,51.16
2019-05-18T20:02:57.602Z,51.17
2019-05-18T20:05:26.269Z,51.82
2019-05-18T20:07:54.951Z,51.82
2019-05-18T20:10:23.653Z,52.45
2019-05-18T20:12:52.332Z,52.39
2019-05-18T20:15:21.311Z,52.25
2019-05-18T20:17:50.001Z,54.22
2019-05-18T20:20:20.367Z,53.55
2019-05-18T20:22:49.025Z,53.91
2019-05-18T20:25:19.164Z,53.84
2019-05-18T20:27:47.816Z,53.60
2019-05-18T20:30:16.886Z,54.19
2019-05-18T20:32:45.570Z,54.20
2019-05-18T20:35:14.327Z,53.87
2019-05-18T20:37:43.295Z,55.90
2019-05-18T20:40:12.163Z,55.14
2019-05-18T20:42:40.854Z,54.95
2019-05-18T20:45:10.412Z,55.52
2019-05-18T20:47:39.094Z,55.77
2019-05-18T20:50:08.606Z,55.67
2019-05-18T20:52:37.376Z,55.25
2019-05-18T20:55:06.262Z,57.08
2019-05-18T20:57:34.936Z,57.19
2019-05-18T21:00:04.562Z,54.91
2019-05-18T21:02:33.245Z,54.11
2019-05-18T21:05:01.931Z,53.64
2019-05-18T21:07:30.624Z,53.68
2019-05-18T21:09:59.271Z,53.66
2019-05-18T21:12:28.010Z,53.95
2019-05-18T21:14:56.682Z,54.42
2019-05-18T21:17:25.354Z,53.41
2019-05-18T21:19:55.390Z,54.11
2019-05-18T21:22:24.069Z,53.55
2019-05-18T21:24:52.784Z,53.92
2019-05-18T21:27:21.448Z,54.53
2019-05-18T21:29:50.119Z,54.87
2019-05-18T21:32:18.798Z,55.77
2019-05-18T21:34:47.474Z,55.70
2019-05-18T21:37:16.166Z,56.04
2019-05-18T21:39:44.899Z,55.60
2019-05-18T21:42:13.527Z,54.88
2019-05-18T21:44:42.205Z,57.97
2019-05-18T21:47:10.994Z,56.66
2019-05-18T21:49:39.677Z,56.50
2019-05-18T21:52:08.355Z,57.33
2019-05-18T21:54:37.026Z,57.53
2019-05-18T21:57:05.704Z,56.86
2019-05-18T21:59:34.368Z,56.47
2019-05-18T22:02:03.450Z,56.54
2019-05-18T22:04:33.326Z,56.80
2019-05-18T22:07:02.021Z,58.08
2019-05-18T22:09:30.709Z,57.29
2019-05-18T22:11:59.382Z,57.23
2019-05-18T22:14:28.592Z,56.76
2019-05-18T22:16:57.242Z,56.95
2019-05-18T22:19:25.911Z,57.43
2019-05-18T22:21:55.267Z,57.84
2019-05-18T22:24:23.985Z,58.07
2019-05-18T22:26:52.674Z,58.27
2019-05-18T22:29:21.340Z,59.28
2019-05-18T22:31:50.075Z,58.29
2019-05-18T22:34:18.751Z,60.46
2019-05-18T22:36:47.428Z,60.26
2019-05-18T22:39:16.275Z,59.59
2019-05-18T22:41:44.958Z,59.62
2019-05-18T22:44:13.635Z,60.43
2019-05-18T22:46:42.320Z,59.44
2019-05-18T22:49:11.006Z,59.61
2019-05-18T22:51:39.684Z,61.14
2019-05-18T22:54:08.352Z,60.75
2019-05-18T22:56:37.010Z,61.25
2019-05-18T22:59:05.687Z,60.87
2019-05-18T23:01:34.349Z,61.26
2019-05-18T23:04:03.057Z,61.35
2019-05-18T23:06:31.733Z,61.19
2019-05-18T23:09:00.574Z,61.68
2019-05-18T23:11:29.256Z,62.79
2019-05-18T23:13:57.940Z,61.71
2019-05-18T23:16:26.652Z,61.98
2019-05-18T23:18:57.076Z,61.91
2019-05-18T23:21:25.746Z,62.79
2019-05-18T23:23:54.434Z,61.91
2019-05-18T23:26:23.114Z,61.60
2019-05-18T23:28:51.787Z,62.35
2019-05-18T23:31:20.547Z,62.51
2019-05-18T23:33:49.234Z,63.38
2019-05-18T23:36:17.918Z,62.14
2019-05-18T23:38:46.585Z,64.06
2019-05-18T23:41:15.268Z,62.89
2019-05-18T23:43:43.940Z,62.52
2019-05-18T23:46:12.606Z,63.17
2019-05-18T23:48:41.271Z,62.53
2019-05-18T23:51:09.952Z,63.90
2019-05-18T23:53:38.649Z,63.02
2019-05-18T23:56:07.322Z,62.68
2019-05-18T23:58:36.010Z,63.41
